Time;durP1;ratioP1;P1;durP2;ratioP2;P2;SDS_P1;SDS_P2;PMS_P1;PMS_P2;Temp;Humidity;BMP_temperature;BMP_pressure;BME280_temperature;BME280_humidity;BME280_pressure;Samples;Min_cycle;Max_cycle;Signal;HPM_P1;HPM_P2
2021/10/27 00:01:22;;;;;;;1.63;1.30;;;;;;;;;;5010634;28;20194;-82
2021/10/27 00:03:50;;;;;;;1.40;1.30;;;;;;;;;;5010781;28;20203;-83
2021/10/27 00:06:17;;;;;;;1.90;1.50;;;;;;;;;;5001047;28;20199;-82
2021/10/27 00:08:45;;;;;;;2.67;1.55;;;;;;;;;;4990491;28;20863;-82
2021/10/27 00:11:12;;;;;;;1.77;1.65;;;;;;;;;;4990881;28;20208;-82
2021/10/27 00:13:41;;;;;;;2.45;2.22;;;;;;;;;;4990308;28;20199;-82
2021/10/27 00:16:10;;;;;;;2.67;2.45;;;;;;;;;;4991247;28;20229;-82
2021/10/27 00:18:37;;;;;;;5.80;1.98;;;;;;;;;;4989719;28;20238;-82
2021/10/27 00:21:05;;;;;;;2.40;2.10;;;;;;;;;;4990300;28;20207;-82
2021/10/27 00:23:32;;;;;;;2.33;2.13;;;;;;;;;;4990483;28;20212;-82
2021/10/27 00:26:00;;;;;;;1.77;1.67;;;;;;;;;;4990649;28;20184;-83
2021/10/27 00:28:28;;;;;;;2.40;2.20;;;;;;;;;;4991601;28;20617;-83
2021/10/27 00:30:55;;;;;;;2.08;1.90;;;;;;;;;;4992835;28;20581;-82
2021/10/27 00:33:24;;;;;;;1.63;1.52;;;;;;;;;;4993261;28;20200;-82
2021/10/27 00:35:51;;;;;;;1.63;1.52;;;;;;;;;;4993709;28;20561;-84
2021/10/27 00:38:19;;;;;;;1.70;1.60;;;;;;;;;;4993437;28;20227;-82
2021/10/27 00:40:47;;;;;;;2.78;2.30;;;;;;;;;;4993243;28;20199;-82
2021/10/27 00:43:14;;;;;;;2.20;1.98;;;;;;;;;;5001417;28;20729;-82
2021/10/27 00:45:43;;;;;;;2.58;2.38;;;;;;;;;;5013417;28;20293;-82
2021/10/27 00:48:10;;;;;;;4.15;3.05;;;;;;;;;;5012136;28;20710;-81
2021/10/27 00:50:39;;;;;;;2.65;2.45;;;;;;;;;;5012935;28;20207;-81
2021/10/27 00:53:07;;;;;;;2.55;1.70;;;;;;;;;;5012993;28;20187;-81
2021/10/27 00:55:34;;;;;;;2.97;2.00;;;;;;;;;;5012496;28;20217;-82
2021/10/27 00:58:02;;;;;;;5.68;2.72;;;;;;;;;;4997134;28;20228;-83
2021/10/27 01:00:30;;;;;;;3.75;2.40;;;;;;;;;;4992915;28;20199;-81
2021/10/27 01:02:57;;;;;;;2.00;1.90;;;;;;;;;;4992361;28;20667;-82
2021/10/27 01:05:25;;;;;;;2.33;2.13;;;;;;;;;;4992253;28;20219;-83
2021/10/27 01:07:55;;;;;;;2.50;2.30;;;;;;;;;;4992643;28;20595;-81
2021/10/27 01:10:22;;;;;;;2.80;2.00;;;;;;;;;;4992701;28;20192;-82
2021/10/27 01:12:49;;;;;;;2.15;1.92;;;;;;;;;;4992416;28;20680;-82
2021/10/27 01:15:19;;;;;;;4.25;2.72;;;;;;;;;;4992527;28;20218;-81
2021/10/27 01:17:46;;;;;;;1.77;1.67;;;;;;;;;;4997140;28;20237;-83
2021/10/27 01:20:15;;;;;;;2.25;1.73;;;;;;;;;;5012316;28;20555;-83
2021/10/27 01:22:43;;;;;;;1.80;1.50;;;;;;;;;;5011990;28;20785;-82
2021/10/27 01:25:13;;;;;;;2.20;1.92;;;;;;;;;;5012089;28;20552;-83
2021/10/27 01:27:43;;;;;;;2.40;1.40;;;;;;;;;;5011867;28;20187;-82
2021/10/27 01:30:16;;;;;;;1.88;1.67;;;;;;;;;;5011755;28;20590;-81
2021/10/27 01:32:45;;;;;;;2.97;1.95;;;;;;;;;;5011760;28;20225;-82
2021/10/27 01:35:15;;;;;;;1.75;1.65;;;;;;;;;;5012262;28;20188;-82
2021/10/27 01:37:43;;;;;;;1.90;1.77;;;;;;;;;;5011953;28;20642;-82
2021/10/27 01:40:14;;;;;;;2.47;2.10;;;;;;;;;;5011630;28;20191;-81
2021/10/27 01:42:43;;;;;;;2.08;1.77;;;;;;;;;;5011927;28;20187;-82
2021/10/27 01:45:11;;;;;;;1.90;1.70;;;;;;;;;;5011692;28;20757;-82
2021/10/27 01:47:43;;;;;;;1.73;1.58;;;;;;;;;;5011436;28;20565;-83
2021/10/27 01:50:11;;;;;;;1.63;1.50;;;;;;;;;;5012444;28;20278;-81
2021/10/27 01:52:41;;;;;;;2.05;1.92;;;;;;;;;;5011966;28;20289;-82
2021/10/27 01:55:09;;;;;;;1.42;1.33;;;;;;;;;;5012520;28;20545;-81
2021/10/27 01:57:36;;;;;;;1.50;1.40;;;;;;;;;;5013361;28;20559;-83
2021/10/27 02:00:06;;;;;;;1.80;1.55;;;;;;;;;;5013464;28;20207;-82
2021/10/27 02:02:33;;;;;;;1.50;1.40;;;;;;;;;;5013177;28;20198;-83
2021/10/27 02:05:01;;;;;;;1.33;1.23;;;;;;;;;;5014555;28;20230;-83
2021/10/27 02:07:29;;;;;;;2.05;1.73;;;;;;;;;;5014550;28;20187;-82
2021/10/27 02:09:57;;;;;;;2.58;2.05;;;;;;;;;;4999371;28;20204;-82
2021/10/27 02:12:25;;;;;;;2.90;2.15;;;;;;;;;;4973589;28;20551;-84
2021/10/27 02:14:53;;;;;;;2.72;2.53;;;;;;;;;;4974173;28;20684;-83
2021/10/27 02:17:21;;;;;;;2.20;2.00;;;;;;;;;;4975360;28;20204;-84
2021/10/27 02:19:48;;;;;;;1.88;1.77;;;;;;;;;;4975857;28;20230;-83
2021/10/27 02:22:16;;;;;;;2.03;1.92;;;;;;;;;;4976360;28;20205;-83
2021/10/27 02:24:43;;;;;;;1.90;1.80;;;;;;;;;;4975195;28;20228;-84
2021/10/27 02:27:12;;;;;;;2.38;2.17;;;;;;;;;;4975730;28;20189;-82
2021/10/27 02:29:40;;;;;;;3.47;3.17;;;;;;;;;;4974314;28;20228;-83
2021/10/27 02:32:08;;;;;;;1.90;1.80;;;;;;;;;;4974121;28;20200;-83
2021/10/27 02:34:36;;;;;;;2.00;1.75;;;;;;;;;;4975346;28;20193;-83
2021/10/27 02:37:04;;;;;;;4.30;2.35;;;;;;;;;;4975064;28;20193;-83
2021/10/27 02:39:31;;;;;;;2.90;2.22;;;;;;;;;;4975036;28;20228;-82
2021/10/27 02:41:59;;;;;;;3.92;2.63;;;;;;;;;;4974446;28;20215;-83
2021/10/27 02:44:28;;;;;;;3.25;2.50;;;;;;;;;;5009754;28;20234;-83
2021/10/27 02:46:55;;;;;;;3.05;2.65;;;;;;;;;;5013792;28;20207;-83
2021/10/27 02:49:22;;;;;;;2.45;2.25;;;;;;;;;;5013761;28;20223;-83
2021/10/27 02:51:50;;;;;;;2.70;1.83;;;;;;;;;;5012757;28;20261;-84
2021/10/27 02:54:17;;;;;;;2.38;2.17;;;;;;;;;;5012963;28;20183;-83
2021/10/27 02:56:45;;;;;;;3.58;2.50;;;;;;;;;;5013568;28;20294;-83
2021/10/27 02:59:12;;;;;;;2.20;2.00;;;;;;;;;;5007967;28;20262;-83
2021/10/27 03:01:41;;;;;;;3.50;2.40;;;;;;;;;;4993627;28;20207;-83
2021/10/27 03:04:10;;;;;;;2.08;1.98;;;;;;;;;;4995159;28;20207;-82
2021/10/27 03:06:39;;;;;;;2.05;1.95;;;;;;;;;;4995382;28;20669;-83
2021/10/27 03:09:07;;;;;;;2.35;2.15;;;;;;;;;;4992535;28;20232;-84
2021/10/27 03:11:34;;;;;;;2.22;2.03;;;;;;;;;;4993081;28;20192;-84
2021/10/27 03:14:02;;;;;;;2.35;2.10;;;;;;;;;;4992963;28;20214;-82
2021/10/27 03:16:29;;;;;;;2.67;2.08;;;;;;;;;;4992871;28;20643;-82
2021/10/27 03:18:58;;;;;;;1.90;1.80;;;;;;;;;;4992752;28;20231;-83
2021/10/27 03:21:27;;;;;;;1.88;1.70;;;;;;;;;;4992295;28;20298;-83
2021/10/27 03:23:54;;;;;;;2.17;1.98;;;;;;;;;;4992317;28;20208;-82
2021/10/27 03:26:22;;;;;;;1.88;1.77;;;;;;;;;;4992783;28;20247;-84
2021/10/27 03:28:50;;;;;;;2.10;2.00;;;;;;;;;;4991860;28;20235;-83
2021/10/27 03:31:17;;;;;;;2.72;2.53;;;;;;;;;;4992373;28;20192;-81
2021/10/27 03:33:45;;;;;;;2.13;2.03;;;;;;;;;;4992801;28;20207;-82
2021/10/27 03:36:14;;;;;;;2.33;1.67;;;;;;;;;;4992569;28;20248;-82
2021/10/27 03:38:41;;;;;;;1.65;1.55;;;;;;;;;;4992831;28;20219;-84
2021/10/27 03:41:09;;;;;;;2.05;1.58;;;;;;;;;;5010933;28;20206;-82
2021/10/27 03:43:37;;;;;;;1.75;1.65;;;;;;;;;;5010961;28;20233;-82
2021/10/27 03:46:04;;;;;;;2.35;1.90;;;;;;;;;;5011176;28;20211;-83
2021/10/27 03:48:32;;;;;;;2.20;1.88;;;;;;;;;;5010721;28;20222;-84
2021/10/27 03:51:00;;;;;;;1.70;1.60;;;;;;;;;;5011623;28;20210;-83
2021/10/27 03:53:28;;;;;;;2.33;2.13;;;;;;;;;;5010644;28;20668;-84
2021/10/27 03:55:56;;;;;;;2.45;2.25;;;;;;;;;;5011027;28;20206;-83
2021/10/27 03:58:23;;;;;;;6.15;1.83;;;;;;;;;;5010762;28;20223;-83
2021/10/27 04:00:51;;;;;;;2.00;1.90;;;;;;;;;;5010544;28;20203;-83
2021/10/27 04:03:22;;;;;;;2.97;2.53;;;;;;;;;;5013883;28;20191;-83
2021/10/27 04:05:49;;;;;;;3.03;2.78;;;;;;;;;;5014792;28;20242;-82
2021/10/27 04:08:17;;;;;;;2.20;2.08;;;;;;;;;;5003604;28;20219;-84
2021/10/27 04:10:46;;;;;;;2.38;2.22;;;;;;;;;;4992819;28;20774;-83
2021/10/27 04:13:14;;;;;;;2.70;2.20;;;;;;;;;;4992785;28;20192;-82
2021/10/27 04:15:42;;;;;;;2.50;2.30;;;;;;;;;;4992808;28;20184;-82
2021/10/27 04:18:09;;;;;;;2.60;2.40;;;;;;;;;;4992749;28;20224;-82
2021/10/27 04:20:38;;;;;;;2.75;2.55;;;;;;;;;;4993235;28;20204;-82
2021/10/27 04:23:06;;;;;;;4.25;2.53;;;;;;;;;;4993195;28;20215;-83
2021/10/27 04:25:34;;;;;;;3.05;2.78;;;;;;;;;;4993529;28;20208;-82
2021/10/27 04:28:03;;;;;;;2.42;2.22;;;;;;;;;;4993441;28;20239;-84
2021/10/27 04:30:30;;;;;;;2.45;2.25;;;;;;;;;;4993653;28;20706;-82
2021/10/27 04:32:58;;;;;;;3.03;2.78;;;;;;;;;;5003790;28;20200;-82
2021/10/27 04:35:26;;;;;;;2.60;2.38;;;;;;;;;;4994176;28;20636;-83
2021/10/27 04:37:53;;;;;;;2.33;2.13;;;;;;;;;;4974278;28;20221;-83
2021/10/27 04:40:21;;;;;;;2.53;2.33;;;;;;;;;;4974728;28;20211;-82
2021/10/27 04:42:49;;;;;;;2.63;2.40;;;;;;;;;;4974251;28;20214;-83
2021/10/27 04:45:20;;;;;;;2.83;2.50;;;;;;;;;;4974444;28;20224;-83
2021/10/27 04:47:48;;;;;;;2.95;2.70;;;;;;;;;;4974790;28;20209;-83
2021/10/27 04:50:15;;;;;;;4.32;2.58;;;;;;;;;;4975659;28;20193;-84
2021/10/27 04:52:43;;;;;;;2.25;2.08;;;;;;;;;;4974648;28;20193;-81
2021/10/27 04:55:10;;;;;;;3.35;3.05;;;;;;;;;;4974090;28;20412;-83
2021/10/27 04:57:37;;;;;;;3.35;2.80;;;;;;;;;;4974722;28;20204;-83
2021/10/27 05:00:07;;;;;;;2.45;2.25;;;;;;;;;;4976285;28;20184;-83
2021/10/27 05:02:35;;;;;;;2.55;2.35;;;;;;;;;;4993439;28;20207;-82
2021/10/27 05:05:03;;;;;;;2.47;2.28;;;;;;;;;;4993153;28;20592;-82
2021/10/27 05:07:30;;;;;;;2.33;2.13;;;;;;;;;;4993104;28;20212;-82
2021/10/27 05:09:58;;;;;;;2.60;2.40;;;;;;;;;;4993014;28;20204;-82
2021/10/27 05:12:26;;;;;;;2.40;2.20;;;;;;;;;;5014494;28;20195;-83
2021/10/27 05:14:54;;;;;;;3.20;2.78;;;;;;;;;;4998728;28;20192;-81
2021/10/27 05:17:22;;;;;;;3.20;2.90;;;;;;;;;;4986781;28;20196;-84
2021/10/27 05:19:51;;;;;;;2.60;2.40;;;;;;;;;;4988835;28;20226;-83
2021/10/27 05:22:19;;;;;;;3.25;2.75;;;;;;;;;;4993471;28;20180;-83
2021/10/27 05:24:47;;;;;;;3.33;3.03;;;;;;;;;;4991564;28;20235;-83
2021/10/27 05:27:15;;;;;;;3.70;3.00;;;;;;;;;;4992192;28;20306;-84
2021/10/27 05:29:43;;;;;;;3.08;2.88;;;;;;;;;;4992735;28;20232;-84
2021/10/27 05:32:11;;;;;;;3.40;3.10;;;;;;;;;;4994568;28;20195;-81
2021/10/27 05:34:42;;;;;;;3.47;3.17;;;;;;;;;;5005250;28;20204;-84
2021/10/27 05:37:11;;;;;;;3.97;3.20;;;;;;;;;;4993799;28;20663;-82
2021/10/27 05:39:39;;;;;;;3.05;2.85;;;;;;;;;;4994669;28;20231;-83
2021/10/27 05:42:10;;;;;;;3.92;3.60;;;;;;;;;;4995106;28;20204;-84
2021/10/27 05:44:37;;;;;;;4.75;3.38;;;;;;;;;;4994970;28;20192;-84
2021/10/27 05:47:05;;;;;;;3.35;3.05;;;;;;;;;;4995773;28;20595;-83
2021/10/27 05:49:37;;;;;;;4.28;3.88;;;;;;;;;;4999537;28;20593;-84
2021/10/27 05:55:00;;;;;;;4.35;3.55;;;;;;;;;;4998745;28;20203;-83
2021/10/27 05:55:08;;;;;;;9.00;6.38;;;;;;;;;;4998478;28;20181;-84
2021/10/27 05:57:38;;;;;;;6.47;4.55;;;;;;;;;;4997956;28;20184;-84
2021/10/27 06:00:07;;;;;;;4.78;4.35;;;;;;;;;;4998948;28;20201;-84
2021/10/27 06:02:35;;;;;;;3.97;3.58;;;;;;;;;;4998157;28;20734;-82
2021/10/27 06:05:02;;;;;;;5.25;4.75;;;;;;;;;;4997601;28;20207;-83
2021/10/27 06:07:31;;;;;;;4.10;3.70;;;;;;;;;;4997431;28;20706;-84
2021/10/27 06:10:00;;;;;;;4.35;3.95;;;;;;;;;;4998373;28;20204;-83
2021/10/27 06:12:28;;;;;;;4.00;3.70;;;;;;;;;;4998924;28;20672;-83
2021/10/27 06:14:56;;;;;;;4.53;4.07;;;;;;;;;;5000595;28;20188;-83
2021/10/27 06:17:23;;;;;;;3.95;3.65;;;;;;;;;;4999962;28;20208;-83
2021/10/27 06:19:52;;;;;;;4.22;3.83;;;;;;;;;;4998100;28;20223;-83
2021/10/27 06:22:21;;;;;;;3.67;3.38;;;;;;;;;;5001493;28;20653;-84
2021/10/27 06:24:48;;;;;;;4.20;3.80;;;;;;;;;;5001603;28;20626;-83
2021/10/27 06:27:18;;;;;;;3.00;2.78;;;;;;;;;;5000286;28;20247;-83
2021/10/27 06:29:48;;;;;;;4.68;4.28;;;;;;;;;;4999643;28;20381;-83
2021/10/27 06:32:25;;;;;;;4.68;3.80;;;;;;;;;;5000576;28;20256;-82
2021/10/27 06:34:55;;;;;;;4.07;3.72;;;;;;;;;;4997850;28;20855;-84
2021/10/27 06:37:35;;;;;;;5.50;4.38;;;;;;;;;;5000710;28;20241;-84
2021/10/27 06:48:22;;;;;;;4.30;3.90;;;;;;;;;;4998083;28;20250;-84
2021/10/27 06:50:49;;;;;;;4.93;4.47;;;;;;;;;;5002254;28;20222;-83
2021/10/27 06:53:17;;;;;;;4.88;4.47;;;;;;;;;;5000869;28;20560;-84
2021/10/27 06:55:44;;;;;;;4.20;3.90;;;;;;;;;;4998243;28;20180;-84
2021/10/27 06:58:17;;;;;;;5.80;4.55;;;;;;;;;;4997751;28;20220;-84
2021/10/27 07:00:47;;;;;;;4.38;4.03;;;;;;;;;;4998190;28;20185;-85
2021/10/27 07:03:34;;;;;;;4.10;3.55;;;;;;;;;;4997451;28;20232;-85
2021/10/27 07:17:04;;;;;;;6.88;6.10;;;;;;;;;;4997125;28;20265;-83
2021/10/27 07:19:31;;;;;;;6.05;5.45;;;;;;;;;;4997508;28;20310;-84
2021/10/27 07:21:59;;;;;;;5.35;4.88;;;;;;;;;;4997517;28;20578;-82
2021/10/27 07:24:27;;;;;;;5.93;4.55;;;;;;;;;;4995442;28;20643;-83
2021/10/27 07:26:58;;;;;;;6.28;5.50;;;;;;;;;;4996595;28;20204;-83
2021/10/27 07:29:27;;;;;;;5.63;5.13;;;;;;;;;;4975585;28;20270;-83
2021/10/27 07:31:55;;;;;;;5.53;5.03;;;;;;;;;;4975544;28;20204;-83
2021/10/27 07:34:30;;;;;;;6.45;5.75;;;;;;;;;;4977559;28;20224;-84
2021/10/27 07:40:03;;;;;;;5.07;4.57;;;;;;;;;;4985349;28;20606;-84
2021/10/27 07:42:31;;;;;;;6.32;5.72;;;;;;;;;;4985099;28;20774;-83
2021/10/27 07:45:00;;;;;;;6.55;5.90;;;;;;;;;;4985203;28;20240;-85
2021/10/27 07:47:27;;;;;;;5.93;4.72;;;;;;;;;;4986450;28;20220;-84
2021/10/27 07:49:55;;;;;;;8.43;5.90;;;;;;;;;;4987038;28;20266;-83
2021/10/27 07:52:22;;;;;;;6.00;5.25;;;;;;;;;;4986387;28;20223;-84
2021/10/27 07:54:49;;;;;;;6.32;5.72;;;;;;;;;;4986819;28;20192;-85
2021/10/27 07:57:17;;;;;;;5.68;5.15;;;;;;;;;;4985475;28;20199;-84
2021/10/27 07:59:44;;;;;;;6.30;5.80;;;;;;;;;;4986482;28;20220;-85
2021/10/27 08:02:13;;;;;;;5.53;5.03;;;;;;;;;;4986306;28;20208;-84
2021/10/27 08:04:42;;;;;;;5.60;5.10;;;;;;;;;;4987280;28;20262;-84
2021/10/27 08:07:10;;;;;;;6.95;6.25;;;;;;;;;;4987980;28;20286;-83
2021/10/27 08:09:37;;;;;;;6.45;5.85;;;;;;;;;;4982652;28;20249;-84
2021/10/27 08:12:06;;;;;;;6.40;5.80;;;;;;;;;;4981626;28;20212;-85
2021/10/27 08:14:34;;;;;;;5.45;4.80;;;;;;;;;;4979377;28;20288;-85
2021/10/27 08:17:01;;;;;;;4.70;4.25;;;;;;;;;;4979633;28;20422;-83
2021/10/27 08:19:30;;;;;;;4.75;3.97;;;;;;;;;;4984672;28;20232;-85
2021/10/27 08:22:01;;;;;;;5.40;4.90;;;;;;;;;;4987091;28;20602;-83
2021/10/27 08:24:28;;;;;;;5.75;5.22;;;;;;;;;;5054381;28;20219;-85
2021/10/27 08:27:05;;;;;;;4.90;4.50;;;;;;;;;;5006117;28;20247;-84
2021/10/27 08:29:37;;;;;;;5.60;5.10;;;;;;;;;;4998969;28;20768;-84
2021/10/27 08:32:14;;;;;;;5.93;4.57;;;;;;;;;;4998906;28;20204;-84
2021/10/27 08:34:47;;;;;;;6.03;5.53;;;;;;;;;;4997687;28;20457;-85
2021/10/27 08:37:16;;;;;;;5.90;5.30;;;;;;;;;;4998775;28;20208;-84
2021/10/27 08:39:44;;;;;;;5.38;4.88;;;;;;;;;;4998408;28;20319;-85
2021/10/27 08:42:14;;;;;;;4.82;4.28;;;;;;;;;;4996691;28;20200;-84
2021/10/27 08:44:42;;;;;;;6.70;5.05;;;;;;;;;;5017088;28;20237;-85
2021/10/27 08:47:10;;;;;;;5.18;4.68;;;;;;;;;;5015016;28;20212;-84
2021/10/27 08:49:39;;;;;;;5.30;4.72;;;;;;;;;;5016643;28;20728;-84
2021/10/27 08:52:12;;;;;;;6.10;4.90;;;;;;;;;;5019924;28;20690;-84
2021/10/27 08:54:39;;;;;;;4.63;4.22;;;;;;;;;;5021685;28;20217;-84
2021/10/27 08:57:10;;;;;;;8.23;5.25;;;;;;;;;;5019416;28;20225;-85
2021/10/27 08:59:47;;;;;;;4.63;4.15;;;;;;;;;;5008063;28;20244;-84
2021/10/27 09:02:42;;;;;;;5.40;3.70;;;;;;;;;;5001889;28;20214;-85
2021/10/27 09:05:29;;;;;;;4.15;3.75;;;;;;;;;;5001988;28;20219;-85
2021/10/27 09:16:36;;;;;;;3.78;3.47;;;;;;;;;;4995313;28;20564;-85
2021/10/27 09:36:16;;;;;;;3.25;2.95;;;;;;;;;;5017291;28;20198;-85
2021/10/27 09:41:59;;;;;;;6.32;3.90;;;;;;;;;;4997303;28;20214;-86
2021/10/27 09:56:28;;;;;;;3.53;3.22;;;;;;;;;;4980930;28;20191;-86
2021/10/27 10:04:41;;;;;;;3.78;3.47;;;;;;;;;;5012785;28;20219;-85
2021/10/27 10:07:09;;;;;;;3.45;3.15;;;;;;;;;;5012638;28;20581;-85
2021/10/27 10:09:40;;;;;;;3.13;2.92;;;;;;;;;;5012052;28;20309;-85
2021/10/27 10:12:08;;;;;;;3.30;3.00;;;;;;;;;;5012774;28;20655;-85
2021/10/27 10:14:39;;;;;;;5.53;4.65;;;;;;;;;;5012203;28;20715;-83
2021/10/27 10:17:08;;;;;;;3.47;3.17;;;;;;;;;;5008363;28;20287;-83
2021/10/27 10:19:38;;;;;;;3.05;2.85;;;;;;;;;;4993314;28;20223;-85
2021/10/27 10:22:07;;;;;;;3.53;3.22;;;;;;;;;;4995492;28;20734;-84
2021/10/27 10:24:40;;;;;;;3.88;3.55;;;;;;;;;;5001148;28;20202;-82
2021/10/27 10:27:13;;;;;;;3.17;2.97;;;;;;;;;;5003753;28;20677;-82
2021/10/27 10:29:49;;;;;;;2.30;2.10;;;;;;;;;;5026307;28;20277;-83
2021/10/27 10:32:48;;;;;;;2.65;2.20;;;;;;;;;;5030453;28;20194;-84
2021/10/27 10:35:22;;;;;;;2.53;2.33;;;;;;;;;;4989912;28;20202;-84
2021/10/27 10:38:01;;;;;;;2.45;2.28;;;;;;;;;;5011555;28;20199;-84
2021/10/27 10:40:57;;;;;;;3.13;2.67;;;;;;;;;;5012115;28;20255;-83
2021/10/27 11:23:32;;;;;;;4.25;3.40;;;;;;;;;;4992698;28;20575;-83
2021/10/27 11:40:22;;;;;;;3.42;3.22;;;;;;;;;;4991708;28;20208;-83
2021/10/27 11:42:51;;;;;;;3.92;3.63;;;;;;;;;;4992739;28;20321;-84
2021/10/27 11:45:36;;;;;;;3.55;3.25;;;;;;;;;;4992432;28;20238;-85
2021/10/27 11:48:08;;;;;;;3.50;3.20;;;;;;;;;;4992251;28;20203;-84
2021/10/27 11:50:39;;;;;;;5.50;5.00;;;;;;;;;;4993193;28;20262;-85
2021/10/27 11:53:17;;;;;;;3.42;3.13;;;;;;;;;;4992636;28;20672;-84
2021/10/27 11:55:45;;;;;;;4.30;3.90;;;;;;;;;;4993010;28;20204;-83
2021/10/27 11:58:12;;;;;;;3.65;3.35;;;;;;;;;;4992572;28;20668;-83
2021/10/27 12:00:40;;;;;;;4.13;3.83;;;;;;;;;;4992644;28;20695;-83
2021/10/27 12:03:11;;;;;;;4.47;4.07;;;;;;;;;;4993184;28;20207;-83
2021/10/27 12:05:46;;;;;;;3.85;3.53;;;;;;;;;;4993843;28;20208;-84
2021/10/27 12:11:18;;;;;;;3.90;3.60;;;;;;;;;;4992917;28;20274;-86
2021/10/27 12:13:59;;;;;;;4.15;3.75;;;;;;;;;;4993062;28;20222;-84
2021/10/27 12:19:23;;;;;;;4.47;4.07;;;;;;;;;;4992705;28;20609;-84
2021/10/27 12:21:55;;;;;;;3.80;3.53;;;;;;;;;;4993639;28;20239;-84
2021/10/27 12:24:26;;;;;;;3.80;3.50;;;;;;;;;;4997064;28;20200;-84
2021/10/27 12:27:00;;;;;;;3.70;3.40;;;;;;;;;;4997336;28;20211;-84
2021/10/27 12:29:30;;;;;;;5.13;3.30;;;;;;;;;;4996954;28;20223;-84
2021/10/27 12:32:09;;;;;;;4.72;3.70;;;;;;;;;;4998004;28;20274;-84
2021/10/27 12:34:47;;;;;;;4.30;3.35;;;;;;;;;;4996937;28;20195;-83
2021/10/27 12:37:38;;;;;;;3.20;2.90;;;;;;;;;;4996642;28;20687;-85
2021/10/27 12:40:22;;;;;;;3.67;3.38;;;;;;;;;;4997036;28;20220;-86
2021/10/27 12:43:00;;;;;;;3.40;3.17;;;;;;;;;;4996231;28;20274;-85
2021/10/27 12:45:35;;;;;;;3.67;3.08;;;;;;;;;;4995945;28;20219;-85
2021/10/27 12:48:05;;;;;;;2.78;2.58;;;;;;;;;;4995617;28;20689;-85
2021/10/27 12:50:33;;;;;;;3.15;2.85;;;;;;;;;;4996743;28;20274;-86
2021/10/27 12:53:04;;;;;;;3.42;3.13;;;;;;;;;;4998078;28;20648;-88
2021/10/27 12:55:33;;;;;;;4.35;3.60;;;;;;;;;;4999032;28;20224;-85
2021/10/27 12:58:05;;;;;;;2.55;2.35;;;;;;;;;;4995459;28;20246;-87
2021/10/27 13:00:52;;;;;;;3.22;2.95;;;;;;;;;;4994665;28;20285;-85
2021/10/27 13:06:17;;;;;;;3.30;3.08;;;;;;;;;;4994560;28;20196;-85
2021/10/27 13:08:55;;;;;;;3.47;3.17;;;;;;;;;;4995657;28;20663;-85
2021/10/27 13:11:41;;;;;;;3.60;3.30;;;;;;;;;;4994986;28;20227;-86
2021/10/27 13:14:16;;;;;;;4.20;3.80;;;;;;;;;;4995214;28;20195;-85
2021/10/27 13:22:27;;;;;;;3.33;3.03;;;;;;;;;;4993839;28;20666;-85
2021/10/27 13:30:31;;;;;;;3.17;2.88;;;;;;;;;;4993335;28;20599;-85
2021/10/27 13:33:01;;;;;;;3.13;2.92;;;;;;;;;;4993737;28;20200;-85
2021/10/27 13:35:28;;;;;;;3.33;2.78;;;;;;;;;;4993193;28;20214;-85
2021/10/27 13:37:56;;;;;;;2.85;2.65;;;;;;;;;;4992805;28;20204;-85
2021/10/27 13:40:26;;;;;;;2.58;2.38;;;;;;;;;;4992768;28;20222;-85
2021/10/27 13:42:59;;;;;;;2.97;2.78;;;;;;;;;;4992974;28;20196;-85
2021/10/27 13:45:31;;;;;;;3.97;3.50;;;;;;;;;;4993298;28;20270;-86
2021/10/27 13:48:07;;;;;;;3.22;2.92;;;;;;;;;;4992946;28;20207;-85
2021/10/27 14:07:10;;;;;;;2.92;2.70;;;;;;;;;;4969972;28;20247;-86
2021/10/27 14:09:41;;;;;;;4.53;3.10;;;;;;;;;;4991842;28;20278;-86
2021/10/27 14:12:21;;;;;;;2.88;2.60;;;;;;;;;;4992222;28;20764;-85
2021/10/27 14:14:58;;;;;;;2.47;2.28;;;;;;;;;;4992376;28;20210;-85
2021/10/27 14:17:38;;;;;;;2.40;2.20;;;;;;;;;;4992169;28;20239;-86
2021/10/27 14:20:39;;;;;;;2.35;2.15;;;;;;;;;;4992617;28;20230;-85
2021/10/27 14:39:57;;;;;;;3.53;3.22;;;;;;;;;;4991689;28;20235;-86
2021/10/27 14:48:21;;;;;;;2.15;2.00;;;;;;;;;;4991089;28;20206;-86
2021/10/27 14:51:16;;;;;;;2.35;2.15;;;;;;;;;;4991180;28;20230;-87
2021/10/27 15:20:13;;;;;;;2.50;2.30;;;;;;;;;;5010559;28;20705;-86
2021/10/27 15:23:06;;;;;;;2.67;2.08;;;;;;;;;;5011105;28;20626;-87
2021/10/27 15:28:48;;;;;;;1.90;1.80;;;;;;;;;;5012527;28;20285;-89
2021/10/27 15:31:25;;;;;;;1.88;1.70;;;;;;;;;;5032243;28;20833;-89
2021/10/27 15:34:18;;;;;;;2.15;2.05;;;;;;;;;;5032739;28;20249;-87
2021/10/27 15:37:04;;;;;;;1.88;1.77;;;;;;;;;;5032716;28;20214;-87
2021/10/27 15:45:36;;;;;;;1.88;1.77;;;;;;;;;;5032050;28;20197;-88
2021/10/27 15:51:01;;;;;;;1.80;1.67;;;;;;;;;;5032026;28;20330;-87
2021/10/27 15:53:32;;;;;;;1.42;1.33;;;;;;;;;;5032561;28;20191;-86
2021/10/27 15:56:06;;;;;;;1.63;1.52;;;;;;;;;;5025033;28;20195;-89
2021/10/27 15:58:34;;;;;;;1.73;1.63;;;;;;;;;;5015066;28;20198;-86
2021/10/27 16:01:04;;;;;;;1.65;1.55;;;;;;;;;;5016492;28;20219;-88
2021/10/27 16:03:31;;;;;;;1.50;1.40;;;;;;;;;;5016857;28;20184;-87
2021/10/27 16:06:02;;;;;;;1.48;1.38;;;;;;;;;;5016738;28;20187;-89
2021/10/27 16:08:35;;;;;;;1.45;1.38;;;;;;;;;;5016739;28;20375;-87
2021/10/27 16:11:05;;;;;;;1.60;1.50;;;;;;;;;;5091688;22;20600;-85
2021/10/27 16:13:33;;;;;;;1.38;1.20;;;;;;;;;;5097217;28;20180;-82
2021/10/27 16:16:01;;;;;;;1.50;1.40;;;;;;;;;;5097882;28;20223;-85
2021/10/27 16:18:35;;;;;;;1.42;1.20;;;;;;;;;;5098957;28;20204;-83
2021/10/27 16:21:05;;;;;;;1.45;1.35;;;;;;;;;;5085228;28;20232;-85
2021/10/27 16:23:34;;;;;;;1.20;1.17;;;;;;;;;;5077941;28;20636;-86
2021/10/27 16:26:02;;;;;;;2.47;1.70;;;;;;;;;;5078417;28;20192;-85
2021/10/27 16:28:33;;;;;;;1.50;1.40;;;;;;;;;;5078205;28;20201;-87
2021/10/27 16:31:03;;;;;;;1.75;1.20;;;;;;;;;;5077847;28;20734;-88
2021/10/27 16:33:31;;;;;;;1.70;1.60;;;;;;;;;;5078283;28;20216;-86
2021/10/27 16:36:00;;;;;;;1.70;1.60;;;;;;;;;;5077952;28;20730;-88
2021/10/27 16:38:28;;;;;;;1.90;1.80;;;;;;;;;;5078203;28;20184;-87
2021/10/27 16:40:58;;;;;;;2.10;1.70;;;;;;;;;;5083905;28;20232;-88
2021/10/27 16:43:27;;;;;;;1.50;1.40;;;;;;;;;;5082163;28;20231;-88
2021/10/27 16:45:57;;;;;;;1.88;1.77;;;;;;;;;;5081834;28;20197;-86
2021/10/27 16:48:25;;;;;;;2.13;1.90;;;;;;;;;;5083182;28;20182;-88
2021/10/27 16:50:53;;;;;;;1.67;1.58;;;;;;;;;;5081134;28;20224;-88
2021/10/27 16:53:24;;;;;;;2.15;1.52;;;;;;;;;;5082022;28;20212;-86
2021/10/27 16:55:53;;;;;;;1.98;1.88;;;;;;;;;;5070939;28;20228;-86
2021/10/27 16:58:23;;;;;;;2.10;1.90;;;;;;;;;;5070818;28;20201;-87
2021/10/27 17:00:51;;;;;;;2.08;1.88;;;;;;;;;;5078445;28;20227;-86
2021/10/27 17:03:19;;;;;;;3.13;2.92;;;;;;;;;;5078150;28;20688;-86
2021/10/27 17:05:49;;;;;;;2.90;2.70;;;;;;;;;;5077273;28;20204;-86
2021/10/27 17:08:20;;;;;;;2.83;2.58;;;;;;;;;;5076799;28;20177;-85
2021/10/27 17:10:49;;;;;;;2.63;2.42;;;;;;;;;;5079850;28;20229;-87
2021/10/27 17:13:17;;;;;;;3.08;2.88;;;;;;;;;;5086677;28;20192;-87
2021/10/27 17:15:48;;;;;;;2.90;2.70;;;;;;;;;;5082809;28;20683;-87
2021/10/27 17:18:18;;;;;;;2.45;2.25;;;;;;;;;;5078018;28;20668;-85
2021/10/27 17:20:47;;;;;;;4.03;1.83;;;;;;;;;;5078040;28;20221;-86
2021/10/27 17:23:32;;;;;;;3.53;2.20;;;;;;;;;;5076778;28;20224;-86
2021/10/27 17:26:01;;;;;;;2.60;2.40;;;;;;;;;;5077989;28;20616;-86
2021/10/27 17:28:29;;;;;;;2.92;2.10;;;;;;;;;;5078994;28;20220;-85
2021/10/27 17:30:58;;;;;;;1.77;1.67;;;;;;;;;;5076480;28;20221;-85
2021/10/27 17:33:27;;;;;;;1.73;1.63;;;;;;;;;;5077798;28;20201;-85
2021/10/27 17:35:59;;;;;;;2.30;2.10;;;;;;;;;;5078064;28;20193;-83
2021/10/27 17:38:27;;;;;;;3.00;2.72;;;;;;;;;;5077820;28;20260;-84
2021/10/27 17:40:54;;;;;;;2.80;2.60;;;;;;;;;;5078256;28;20225;-84
2021/10/27 17:43:24;;;;;;;5.47;4.32;;;;;;;;;;5077915;28;20570;-84
2021/10/27 17:45:52;;;;;;;4.28;3.55;;;;;;;;;;5076473;28;20661;-84
2021/10/27 17:48:26;;;;;;;5.50;4.43;;;;;;;;;;5077631;28;20249;-83
2021/10/27 17:51:01;;;;;;;3.85;3.25;;;;;;;;;;5076999;28;20228;-83
2021/10/27 17:59:04;;;;;;;2.20;2.00;;;;;;;;;;5077877;28;20256;-85
2021/10/27 18:01:34;;;;;;;2.40;1.90;;;;;;;;;;5080490;28;20672;-85
2021/10/27 18:04:04;;;;;;;2.33;2.13;;;;;;;;;;5079775;28;20766;-84
2021/10/27 18:06:41;;;;;;;2.53;2.33;;;;;;;;;;5079812;28;20676;-86
2021/10/27 18:09:13;;;;;;;2.28;2.10;;;;;;;;;;5078808;28;20590;-86
2021/10/27 18:11:44;;;;;;;3.75;2.53;;;;;;;;;;5076640;28;20300;-85
2021/10/27 18:14:15;;;;;;;3.45;3.15;;;;;;;;;;5081802;28;20197;-85
2021/10/27 18:16:48;;;;;;;3.45;2.85;;;;;;;;;;5058666;28;20308;-85
2021/10/27 18:19:30;;;;;;;5.72;3.88;;;;;;;;;;5078062;28;20205;-86
2021/10/27 18:22:01;;;;;;;2.78;2.55;;;;;;;;;;5081811;28;20187;-86
2021/10/27 18:24:58;;;;;;;3.33;3.03;;;;;;;;;;5097732;28;20203;-85
2021/10/27 18:27:47;;;;;;;2.95;2.75;;;;;;;;;;5090685;28;20189;-85
2021/10/27 18:38:38;;;;;;;3.40;2.60;;;;;;;;;;5078838;28;20675;-85
2021/10/27 18:41:15;;;;;;;2.25;2.15;;;;;;;;;;5079068;28;20229;-85
2021/10/27 18:43:45;;;;;;;3.00;2.05;;;;;;;;;;5078450;28;20676;-85
2021/10/27 18:46:14;;;;;;;2.35;2.10;;;;;;;;;;5077277;28;20177;-85
2021/10/27 18:48:46;;;;;;;2.70;2.50;;;;;;;;;;5079499;28;20283;-85
2021/10/27 18:51:18;;;;;;;2.90;2.70;;;;;;;;;;5080363;28;20280;-86
2021/10/27 18:54:04;;;;;;;2.78;2.42;;;;;;;;;;5081720;28;20656;-85
2021/10/27 18:56:35;;;;;;;2.63;2.42;;;;;;;;;;5075254;28;20283;-88
2021/10/27 18:59:10;;;;;;;2.67;2.47;;;;;;;;;;5081889;28;20242;-86